Time;durP1;ratioP1;P1;durP2;ratioP2;P2;SDS_P1;SDS_P2;PMS_P1;PMS_P2;Temp;Humidity;BMP_temperature;BMP_pressure;BME280_temperature;BME280_humidity;BME280_pressure;Samples;Min_cycle;Max_cycle;Signal;HPM_P1;HPM_P2
2023/04/16 00:00:51;;;;;;;30.20;13.60;;;;;;;9.11;84.82;100000.95;110019;1271;22227;-62
2023/04/16 00:03:36;;;;;;;31.80;13.80;;;;;;;9.00;84.91;99996.53;110019;1273;22189;-62
2023/04/16 00:06:07;;;;;;;32.30;14.60;;;;;;;8.95;84.81;99993.59;110000;1274;23425;-61
2023/04/16 00:08:39;;;;;;;30.40;14.10;;;;;;;8.93;84.86;99993.95;108394;1264;24065;-60
2023/04/16 00:11:11;;;;;;;29.70;13.10;;;;;;;8.92;84.59;99998.75;106005;1280;24261;-61
2023/04/16 00:13:42;;;;;;;30.20;13.20;;;;;;;8.95;84.35;99998.70;106036;1280;24068;-60
2023/04/16 00:16:14;;;;;;;30.80;13.00;;;;;;;8.96;84.29;99998.87;106023;1279;25522;-61
2023/04/16 00:18:45;;;;;;;28.50;13.00;;;;;;;8.96;83.98;99998.56;110041;1276;22166;-61
2023/04/16 00:21:16;;;;;;;26.50;12.20;;;;;;;8.95;83.96;99998.46;110041;1264;22176;-62
2023/04/16 00:23:47;;;;;;;29.20;13.90;;;;;;;8.92;83.78;99996.52;110030;1273;22135;-61
2023/04/16 00:26:18;;;;;;;28.90;13.40;;;;;;;8.91;83.68;99995.38;110005;1272;22206;-61
2023/04/16 00:28:48;;;;;;;28.80;12.40;;;;;;;8.87;83.73;99998.38;110009;1279;22176;-62
2023/04/16 00:31:26;;;;;;;36.00;14.00;;;;;;;8.79;83.86;100000.44;110024;1276;22243;-62
2023/04/16 00:33:56;;;;;;;29.00;12.10;;;;;;;8.76;83.71;100000.30;109983;1273;22164;-61
2023/04/16 00:36:28;;;;;;;29.20;12.50;;;;;;;8.75;83.51;100001.55;110038;1273;22177;-61
2023/04/16 00:38:59;;;;;;;31.60;14.20;;;;;;;8.75;83.33;100000.27;109999;1276;22247;-61
2023/04/16 00:41:30;;;;;;;33.40;14.90;;;;;;;8.72;83.27;100002.45;110049;1274;22326;-62
2023/04/16 00:44:01;;;;;;;31.20;14.00;;;;;;;8.68;83.29;99998.92;110014;1265;22495;-61
2023/04/16 00:46:33;;;;;;;28.70;12.60;;;;;;;8.63;83.43;100004.35;110053;1279;23020;-62
2023/04/16 00:49:05;;;;;;;30.80;12.60;;;;;;;8.59;83.30;100004.44;108671;1267;22536;-61
2023/04/16 00:51:36;;;;;;;28.30;13.90;;;;;;;8.56;83.12;100011.20;105945;1271;24321;-60
2023/04/16 00:54:08;;;;;;;33.50;13.70;;;;;;;8.52;83.06;100009.73;105984;1271;22544;-59
2023/04/16 00:56:39;;;;;;;29.60;13.20;;;;;;;8.48;83.03;100010.64;106028;1264;22535;-61
2023/04/16 00:59:11;;;;;;;32.30;14.90;;;;;;;8.41;82.91;100011.35;105979;1265;25507;-61
2023/04/16 01:01:42;;;;;;;32.10;14.90;;;;;;;8.32;83.91;100009.73;110046;1280;22660;-61
2023/04/16 01:04:13;;;;;;;33.30;14.80;;;;;;;8.19;84.20;100012.54;110069;1264;23062;-62
2023/04/16 01:06:44;;;;;;;32.00;13.60;;;;;;;8.05;84.59;100009.77;110049;1273;22136;-61
2023/04/16 01:09:15;;;;;;;37.10;16.10;;;;;;;7.97;84.62;100012.20;108991;1272;25491;-61
2023/04/16 01:11:45;;;;;;;34.40;15.50;;;;;;;7.89;85.17;100014.73;106055;1257;24233;-61
2023/04/16 01:14:16;;;;;;;34.40;15.30;;;;;;;7.85;85.20;100015.63;106036;1264;22534;-61
2023/04/16 01:16:47;;;;;;;32.00;14.70;;;;;;;7.81;85.17;100015.15;109727;1279;22524;-61
2023/04/16 01:19:18;;;;;;;31.70;14.30;;;;;;;7.75;84.92;100016.81;105973;1274;23275;-59
2023/04/16 01:21:49;;;;;;;32.40;14.40;;;;;;;7.70;84.81;100021.64;106007;1273;22687;-61
2023/04/16 01:24:20;;;;;;;32.10;14.30;;;;;;;7.68;84.62;100025.92;106094;1257;26082;-59
2023/04/16 01:26:51;;;;;;;31.60;14.30;;;;;;;7.64;84.53;100029.70;106044;1264;26360;-60
2023/04/16 01:29:21;;;;;;;30.70;13.60;;;;;;;7.59;84.52;100035.07;106035;1276;22586;-60
2023/04/16 01:31:53;;;;;;;32.30;14.40;;;;;;;7.56;84.40;100036.15;106110;1280;26126;-60
2023/04/16 01:34:24;;;;;;;32.10;15.00;;;;;;;7.56;84.44;100035.04;106027;1279;22523;-60
2023/04/16 01:36:54;;;;;;;36.90;14.40;;;;;;;7.56;84.36;100037.35;105983;1280;22582;-61
2023/04/16 01:39:26;;;;;;;32.80;14.30;;;;;;;7.51;84.42;100037.79;105984;1279;25352;-60
2023/04/16 01:41:57;;;;;;;33.60;14.10;;;;;;;7.48;84.38;100036.18;110015;1273;22228;-61
2023/04/16 01:44:27;;;;;;;26.90;12.80;;;;;;;7.45;84.11;100038.46;110058;1267;22965;-61
2023/04/16 01:46:58;;;;;;;31.40;15.20;;;;;;;7.41;84.23;100037.51;110007;1273;22382;-62
2023/04/16 01:49:29;;;;;;;30.30;13.90;;;;;;;7.39;84.21;100035.70;110050;1267;22427;-61
2023/04/16 01:52:00;;;;;;;36.70;16.70;;;;;;;7.31;84.15;100035.95;110020;1273;22297;-61
2023/04/16 01:54:31;;;;;;;32.30;16.60;;;;;;;7.22;84.62;100031.35;106678;1273;22530;-61
2023/04/16 01:57:02;;;;;;;32.50;16.20;;;;;;;7.14;84.89;100033.43;105956;1270;24558;-59
2023/04/16 01:59:33;;;;;;;37.80;18.00;;;;;;;7.10;84.82;100033.52;105910;1261;24252;-58
2023/04/16 02:02:09;;;;;;;32.90;15.40;;;;;;;7.09;84.74;100032.55;105903;1279;22568;-57
2023/04/16 02:04:41;;;;;;;36.20;17.20;;;;;;;7.09;84.75;100036.42;110055;1279;22193;-60
2023/04/16 02:07:13;;;;;;;39.40;19.20;;;;;;;7.09;84.76;100035.00;107771;1274;24221;-60
2023/04/16 02:09:44;;;;;;;37.80;19.10;;;;;;;7.05;84.90;100035.95;106744;1279;24289;-59
2023/04/16 02:12:15;;;;;;;36.00;19.10;;;;;;;7.02;84.85;100039.19;105932;1258;22583;-59
2023/04/16 02:14:46;;;;;;;40.50;20.20;;;;;;;6.99;84.92;100039.92;110020;1269;22324;-61
2023/04/16 02:17:17;;;;;;;41.50;18.90;;;;;;;6.97;85.00;100044.20;110017;1272;22155;-61
2023/04/16 02:19:48;;;;;;;39.10;19.40;;;;;;;6.97;85.07;100047.62;110031;1272;22528;-61
2023/04/16 02:22:19;;;;;;;38.50;18.70;;;;;;;6.97;84.94;100053.33;110045;1264;22227;-61
2023/04/16 02:24:50;;;;;;;38.00;19.40;;;;;;;6.98;84.74;100052.42;110019;1274;22257;-61
2023/04/16 02:27:21;;;;;;;37.90;19.10;;;;;;;6.99;84.81;100053.58;110035;1270;22951;-61
2023/04/16 02:29:51;;;;;;;37.30;19.20;;;;;;;6.98;84.62;100054.00;110036;1274;23160;-61
2023/04/16 02:32:22;;;;;;;40.90;18.60;;;;;;;6.98;84.54;100059.71;110043;1274;22144;-60
2023/04/16 02:34:53;;;;;;;42.30;20.50;;;;;;;6.98;84.68;100057.98;109545;1273;25443;-60
2023/04/16 02:37:24;;;;;;;37.30;19.50;;;;;;;6.95;84.48;100062.35;106040;1274;22537;-59
2023/04/16 02:39:56;;;;;;;39.70;19.30;;;;;;;6.92;84.45;100057.91;106121;1273;25492;-59
2023/04/16 02:42:27;;;;;;;39.80;20.50;;;;;;;6.87;84.67;100066.49;110024;1264;22249;-61
2023/04/16 02:44:58;;;;;;;38.90;19.80;;;;;;;6.81;84.88;100063.27;110029;1273;22252;-61
2023/04/16 02:47:29;;;;;;;38.70;21.10;;;;;;;6.76;85.14;100067.11;108132;1279;24019;-61
2023/04/16 02:50:00;;;;;;;39.50;19.50;;;;;;;6.72;85.00;100072.11;105949;1273;22586;-60
2023/04/16 02:52:31;;;;;;;46.00;22.20;;;;;;;6.69;85.24;100072.70;105977;1279;22536;-60
2023/04/16 02:55:02;;;;;;;45.00;22.30;;;;;;;6.68;85.58;100074.73;110039;1274;22252;-60
2023/04/16 02:57:33;;;;;;;45.20;21.60;;;;;;;6.66;85.33;100074.91;110041;1273;22402;-61
2023/04/16 03:00:05;;;;;;;40.20;20.20;;;;;;;6.61;85.37;100081.01;110047;1274;23091;-61
2023/04/16 03:02:35;;;;;;;41.10;20.50;;;;;;;6.59;85.40;100078.91;110025;1274;22311;-60
2023/04/16 03:05:07;;;;;;;43.60;22.00;;;;;;;6.59;85.19;100078.27;110032;1272;22164;-61
2023/04/16 03:07:39;;;;;;;44.50;22.80;;;;;;;6.57;85.19;100075.80;110047;1276;22690;-61
2023/04/16 03:10:12;;;;;;;45.80;22.40;;;;;;;6.56;85.81;100082.74;110049;1269;22264;-61
2023/04/16 03:12:43;;;;;;;40.10;21.70;;;;;;;6.53;86.01;100085.05;106726;1274;22726;-61
2023/04/16 03:15:14;;;;;;;40.00;20.80;;;;;;;6.54;86.01;100086.62;105974;1264;23164;-60
2023/04/16 03:17:45;;;;;;;39.40;20.00;;;;;;;6.52;85.70;100088.83;105916;1279;25028;-60
2023/04/16 03:20:17;;;;;;;39.00;20.10;;;;;;;6.47;85.65;100090.92;105976;1265;22646;-60
2023/04/16 03:22:51;;;;;;;38.90;20.10;;;;;;;6.43;86.23;100091.25;106118;1274;22661;-59
2023/04/16 03:25:22;;;;;;;38.50;20.00;;;;;;;6.38;86.24;100098.16;106045;1279;25382;-59
2023/04/16 03:27:52;;;;;;;36.90;18.40;;;;;;;6.31;86.59;100098.27;110006;1274;22907;-60
2023/04/16 03:30:23;;;;;;;36.70;18.60;;;;;;;6.25;86.50;100098.63;110003;1274;22888;-60
2023/04/16 03:32:54;;;;;;;38.90;17.40;;;;;;;6.22;86.46;100106.52;110027;1276;23129;-61
2023/04/16 03:35:25;;;;;;;34.10;18.20;;;;;;;6.17;87.10;100103.39;110036;1273;22337;-60
2023/04/16 03:37:56;;;;;;;38.60;18.30;;;;;;;6.10;87.53;100106.52;110036;1272;22394;-61
2023/04/16 03:40:27;;;;;;;35.60;18.80;;;;;;;6.07;87.44;100108.13;110048;1279;22152;-61
2023/04/16 03:42:58;;;;;;;42.10;20.70;;;;;;;6.04;87.94;100111.95;110021;1274;22135;-61
2023/04/16 03:45:29;;;;;;;37.20;18.40;;;;;;;6.03;87.95;100118.38;110048;1265;22589;-61
2023/04/16 03:47:59;;;;;;;35.20;18.10;;;;;;;6.04;87.72;100120.08;105963;1279;24370;-60
2023/04/16 03:50:30;;;;;;;34.90;17.00;;;;;;;6.06;87.40;100125.27;105991;1274;22650;-60
2023/04/16 03:53:01;;;;;;;37.40;18.30;;;;;;;6.08;87.29;100129.38;105955;1280;22619;-60
2023/04/16 03:55:32;;;;;;;37.40;17.60;;;;;;;6.11;87.26;100132.84;105977;1274;22527;-62
2023/04/16 03:58:03;;;;;;;40.00;18.20;;;;;;;6.11;87.17;100130.70;105940;1273;24390;-60
2023/04/16 04:00:35;;;;;;;42.70;19.50;;;;;;;6.10;87.15;100135.57;106023;1268;25423;-60
2023/04/16 04:03:05;;;;;;;36.00;19.30;;;;;;;6.10;87.20;100142.61;106070;1264;22648;-61
2023/04/16 04:05:39;;;;;;;38.30;19.30;;;;;;;6.09;87.22;100148.02;106020;1276;22653;-60
2023/04/16 04:08:10;;;;;;;37.50;18.80;;;;;;;6.07;87.25;100146.75;110027;1272;22214;-60
2023/04/16 04:10:41;;;;;;;39.90;18.90;;;;;;;6.06;87.42;100148.15;110049;1280;22174;-61
2023/04/16 04:13:12;;;;;;;39.30;18.50;;;;;;;6.05;87.56;100157.54;110027;1274;22152;-60
2023/04/16 04:15:43;;;;;;;39.10;19.30;;;;;;;6.05;87.80;100158.23;110021;1273;22327;-61
2023/04/16 04:18:14;;;;;;;41.70;20.50;;;;;;;6.04;88.21;100161.07;110030;1268;22319;-61
2023/04/16 04:20:45;;;;;;;40.90;21.10;;;;;;;6.02;88.68;100159.91;110047;1268;22294;-61
2023/04/16 04:23:17;;;;;;;42.60;20.80;;;;;;;6.03;88.96;100158.16;110012;1273;22255;-61
2023/04/16 04:25:47;;;;;;;41.90;20.90;;;;;;;6.03;89.43;100157.45;110046;1268;22230;-61
2023/04/16 04:28:18;;;;;;;44.60;21.90;;;;;;;6.04;89.65;100157.86;110032;1276;22232;-61
2023/04/16 04:30:49;;;;;;;40.10;21.50;;;;;;;6.06;89.91;100160.25;110028;1268;22886;-61
2023/04/16 04:33:20;;;;;;;42.20;21.60;;;;;;;6.10;90.21;100160.19;106725;1274;24401;-58
2023/04/16 04:35:51;;;;;;;44.90;23.00;;;;;;;6.13;90.50;100158.34;105961;1280;25413;-60
2023/04/16 04:38:24;;;;;;;42.50;22.10;;;;;;;6.16;90.74;100160.45;106016;1268;24216;-62
2023/04/16 04:40:55;;;;;;;42.10;22.40;;;;;;;6.19;90.99;100162.08;109997;1273;23837;-60
2023/04/16 04:43:26;;;;;;;45.40;23.60;;;;;;;6.21;91.14;100159.46;110049;1273;22283;-61
2023/04/16 04:45:57;;;;;;;47.30;23.00;;;;;;;6.22;91.64;100164.13;108040;1273;22530;-60
2023/04/16 04:48:28;;;;;;;43.70;22.70;;;;;;;6.20;92.04;100162.98;105975;1264;24388;-61
2023/04/16 04:50:58;;;;;;;45.80;23.00;;;;;;;6.22;92.19;100164.98;106117;1274;23977;-60
2023/04/16 04:53:29;;;;;;;43.80;22.40;;;;;;;6.24;92.49;100171.07;105955;1264;24269;-60
2023/04/16 04:56:00;;;;;;;44.60;21.60;;;;;;;6.25;92.81;100171.11;105915;1279;24405;-60
2023/04/16 04:58:31;;;;;;;43.30;22.00;;;;;;;6.26;92.98;100173.77;105977;1279;22719;-58
2023/04/16 05:01:02;;;;;;;48.40;24.70;;;;;;;6.28;93.14;100175.15;106097;1277;25590;-60
2023/04/16 05:03:33;;;;;;;46.70;22.70;;;;;;;6.30;93.21;100175.52;110100;1264;23364;-61
2023/04/16 05:06:04;;;;;;;44.40;20.80;;;;;;;6.33;93.27;100181.06;110107;1271;22205;-61
2023/04/16 05:08:34;;;;;;;45.80;23.90;;;;;;;6.36;93.39;100182.92;106352;1265;22535;-60
2023/04/16 05:11:06;;;;;;;54.20;26.30;;;;;;;6.40;93.44;100185.60;105944;1264;22741;-64
2023/04/16 05:13:37;;;;;;;47.10;25.20;;;;;;;6.45;93.75;100189.70;105977;1279;22586;-59
2023/04/16 05:16:09;;;;;;;48.10;25.60;;;;;;;6.50;93.98;100196.98;107341;1274;22523;-60
2023/04/16 05:18:40;;;;;;;48.40;23.90;;;;;;;6.53;93.99;100198.52;110070;1273;22945;-60
2023/04/16 05:21:11;;;;;;;47.80;24.50;;;;;;;6.59;94.12;100202.19;110125;1267;23063;-60
2023/04/16 05:23:42;;;;;;;46.40;24.10;;;;;;;6.65;94.17;100205.71;110083;1274;22192;-60
2023/04/16 05:26:13;;;;;;;51.10;25.30;;;;;;;6.70;94.13;100208.69;110099;1271;23183;-60
2023/04/16 05:28:43;;;;;;;45.70;24.50;;;;;;;6.77;94.30;100213.02;110139;1267;22273;-60
2023/04/16 05:31:14;;;;;;;46.50;24.60;;;;;;;6.83;94.23;100217.80;107109;1274;22523;-59
2023/04/16 05:33:45;;;;;;;51.70;24.40;;;;;;;6.90;94.34;100218.45;106010;1274;25534;-60
2023/04/16 05:36:16;;;;;;;49.00;25.90;;;;;;;6.96;94.48;100217.81;106050;1274;26653;-59
2023/04/16 05:38:47;;;;;;;49.00;25.10;;;;;;;7.02;94.70;100218.71;106019;1276;25440;-60
2023/04/16 05:41:18;;;;;;;50.80;25.60;;;;;;;7.07;94.60;100221.05;110100;1264;22230;-61
2023/04/16 05:43:49;;;;;;;52.40;25.80;;;;;;;7.14;94.88;100223.32;110115;1277;22211;-61
2023/04/16 05:46:19;;;;;;;53.00;25.70;;;;;;;7.20;95.14;100226.25;106759;1271;22650;-60
2023/04/16 05:48:50;;;;;;;53.20;28.90;;;;;;;7.29;95.19;100231.68;106022;1264;22656;-60
2023/04/16 05:51:24;;;;;;;53.50;27.80;;;;;;;7.35;95.34;100239.00;105983;1279;22565;-59
2023/04/16 05:53:55;;;;;;;53.30;25.30;;;;;;;7.40;95.41;100243.46;106699;1276;22539;-60
2023/04/16 05:56:26;;;;;;;61.00;28.00;;;;;;;7.45;95.16;100244.00;105979;1271;22618;-61
2023/04/16 05:58:57;;;;;;;51.90;26.70;;;;;;;7.51;95.23;100247.66;105983;1265;26843;-60
2023/04/16 06:01:28;;;;;;;52.50;27.50;;;;;;;7.58;95.45;100251.48;107223;1279;22520;-60
2023/04/16 06:03:59;;;;;;;49.90;25.60;;;;;;;7.66;95.80;100249.89;110097;1272;22381;-61
2023/04/16 06:06:30;;;;;;;54.70;26.90;;;;;;;7.73;95.85;100249.36;109175;1273;24218;-61
2023/04/16 06:09:01;;;;;;;52.10;27.10;;;;;;;7.79;95.86;100251.02;106067;1272;22520;-60
2023/04/16 06:11:32;;;;;;;49.60;27.00;;;;;;;7.85;95.55;100255.59;106141;1274;23211;-60
2023/04/16 06:14:03;;;;;;;50.10;26.30;;;;;;;7.93;95.67;100257.91;110092;1271;23100;-61
2023/04/16 06:16:34;;;;;;;47.00;24.90;;;;;;;8.00;95.66;100261.23;110103;1273;22189;-61
2023/04/16 06:19:05;;;;;;;46.60;23.60;;;;;;;8.07;95.75;100263.88;110105;1267;22180;-61
2023/04/16 06:21:36;;;;;;;43.80;22.80;;;;;;;8.16;95.94;100270.73;110103;1274;23300;-61
2023/04/16 06:24:08;;;;;;;46.00;22.10;;;;;;;8.26;95.68;100272.32;110094;1274;22373;-62
2023/04/16 06:26:39;;;;;;;44.40;22.40;;;;;;;8.32;95.45;100271.66;110096;1271;22193;-61
2023/04/16 06:29:10;;;;;;;42.80;21.60;;;;;;;8.40;95.48;100274.27;110130;1263;22777;-62
2023/04/16 06:31:41;;;;;;;38.30;19.40;;;;;;;8.49;95.63;100272.90;107035;1273;24315;-62
2023/04/16 06:34:12;;;;;;;36.90;19.60;;;;;;;8.60;95.50;100273.95;105720;1271;24257;-61
2023/04/16 06:36:43;;;;;;;40.30;20.40;;;;;;;8.68;95.45;100272.77;105967;1272;23139;-61
2023/04/16 06:39:14;;;;;;;39.90;20.80;;;;;;;8.80;95.53;100275.66;105778;1271;22665;-61
2023/04/16 06:41:46;;;;;;;37.10;17.10;;;;;;;8.94;95.78;100273.59;109656;1265;27384;-61
2023/04/16 06:44:17;;;;;;;38.20;18.20;;;;;;;9.07;95.35;100271.65;109891;1271;22224;-60
2023/04/16 06:46:48;;;;;;;33.50;17.00;;;;;;;9.18;95.05;100279.16;110016;1267;22854;-61
2023/04/16 06:49:18;;;;;;;30.70;15.60;;;;;;;9.24;94.30;100276.23;110087;1265;22982;-60
2023/04/16 06:51:50;;;;;;;36.80;16.70;;;;;;;9.31;94.39;100273.27;110103;1271;22208;-60
2023/04/16 06:54:21;;;;;;;38.20;18.20;;;;;;;9.42;94.62;100275.70;110070;1267;22245;-60
2023/04/16 06:56:51;;;;;;;37.20;18.70;;;;;;;9.54;94.56;100279.36;110102;1277;22276;-60
2023/04/16 06:59:22;;;;;;;36.90;17.70;;;;;;;9.63;94.23;100281.63;110103;1267;22218;-60
2023/04/16 07:01:54;;;;;;;31.50;15.60;;;;;;;9.72;94.23;100283.78;110096;1265;22959;-60
2023/04/16 07:04:24;;;;;;;28.10;14.30;;;;;;;9.85;94.15;100283.66;110073;1274;22352;-61
2023/04/16 07:06:55;;;;;;;30.50;13.30;;;;;;;9.97;93.68;100285.39;110072;1273;22256;-61
2023/04/16 07:09:26;;;;;;;28.70;14.10;;;;;;;10.07;93.52;100287.90;110082;1277;22461;-61
2023/04/16 07:11:58;;;;;;;28.40;12.50;;;;;;;10.14;92.23;100291.64;110070;1276;22277;-61
2023/04/16 07:14:29;;;;;;;25.80;12.10;;;;;;;10.17;92.08;100293.33;110134;1271;22334;-61
2023/04/16 07:17:00;;;;;;;25.10;11.70;;;;;;;10.23;92.35;100291.72;110094;1264;22345;-61
2023/04/16 07:19:31;;;;;;;26.50;11.40;;;;;;;10.33;91.91;100296.80;110091;1279;22327;-61
2023/04/16 07:22:02;;;;;;;29.60;12.30;;;;;;;10.39;91.53;100300.79;110097;1274;22290;-60
2023/04/16 07:24:33;;;;;;;25.50;11.70;;;;;;;10.45;91.58;100302.54;110069;1274;22408;-61
2023/04/16 07:27:04;;;;;;;27.20;11.80;;;;;;;10.56;91.61;100308.23;110131;1267;22124;-62
2023/04/16 07:29:35;;;;;;;25.30;10.80;;;;;;;10.65;91.14;100307.91;108082;1279;22583;-61
2023/04/16 07:32:06;;;;;;;22.20;10.10;;;;;;;10.70;90.39;100309.77;105907;1270;22982;-61
2023/04/16 07:34:37;;;;;;;28.50;12.00;;;;;;;10.72;90.39;100314.52;110098;1273;22411;-61
2023/04/16 07:37:08;;;;;;;24.30;10.40;;;;;;;10.76;90.44;100316.75;110090;1273;22355;-61
2023/04/16 07:39:39;;;;;;;25.00;9.90;;;;;;;10.82;90.55;100314.17;110068;1273;23330;-61
2023/04/16 07:42:10;;;;;;;23.80;10.20;;;;;;;10.89;90.24;100320.11;110079;1268;22349;-61
2023/04/16 07:44:41;;;;;;;27.80;12.30;;;;;;;10.95;90.23;100322.20;110119;1274;22182;-61
2023/04/16 07:47:12;;;;;;;21.30;9.90;;;;;;;11.05;90.51;100322.53;110117;1271;22317;-61
2023/04/16 07:49:42;;;;;;;24.30;10.10;;;;;;;11.16;89.99;100325.87;110118;1273;22235;-61
2023/04/16 07:52:13;;;;;;;24.30;11.00;;;;;;;11.22;89.38;100328.64;110138;1267;22893;-61
2023/04/16 07:54:44;;;;;;;26.30;10.90;;;;;;;11.24;89.07;100333.48;110087;1274;22642;-61
2023/04/16 07:57:15;;;;;;;22.40;9.50;;;;;;;11.20;88.67;100329.95;110096;1276;22419;-61
2023/04/16 07:59:46;;;;;;;21.90;9.40;;;;;;;11.20;88.79;100332.20;110021;1273;22988;-61
2023/04/16 08:02:17;;;;;;;24.60;10.00;;;;;;;11.20;88.56;100334.03;110116;1264;22161;-61
2023/04/16 08:04:48;;;;;;;24.70;10.60;;;;;;;11.21;88.28;100338.57;110084;1272;22281;-61
2023/04/16 08:07:19;;;;;;;22.40;9.20;;;;;;;11.23;88.07;100333.68;110129;1279;22160;-61
2023/04/16 08:09:51;;;;;;;20.20;8.60;;;;;;;11.29;88.17;100339.18;110145;1274;22279;-61
2023/04/16 08:12:22;;;;;;;24.50;11.10;;;;;;;11.34;88.05;100335.14;110109;1276;23039;-61
2023/04/16 08:14:53;;;;;;;19.80;8.50;;;;;;;11.39;88.25;100339.50;110048;1276;22985;-61
2023/04/16 08:17:24;;;;;;;21.50;9.00;;;;;;;11.43;87.49;100337.63;110133;1276;22867;-61
2023/04/16 08:19:55;;;;;;;15.80;5.70;;;;;;;11.45;87.33;100338.11;110022;1271;23384;-61
2023/04/16 08:22:26;;;;;;;11.60;3.60;;;;;;;11.50;86.66;100338.92;110118;1279;22142;-66
2023/04/16 08:24:57;;;;;;;15.60;4.30;;;;;;;11.59;86.00;100338.70;110119;1272;22226;-61
2023/04/16 08:27:28;;;;;;;9.70;2.70;;;;;;;11.68;84.87;100336.45;110115;1277;22181;-61
2023/04/16 08:29:59;;;;;;;10.70;2.40;;;;;;;11.73;83.05;100336.22;110074;1273;22168;-61
2023/04/16 08:32:30;;;;;;;9.60;2.20;;;;;;;11.79;84.59;100336.46;110124;1265;22242;-61
2023/04/16 08:35:01;;;;;;;8.30;2.20;;;;;;;11.89;84.32;100343.64;110121;1271;22405;-61
2023/04/16 08:37:31;;;;;;;8.50;2.60;;;;;;;11.95;83.11;100345.46;110154;1279;22845;-61
2023/04/16 08:40:02;;;;;;;8.30;2.10;;;;;;;11.98;83.92;100351.83;108637;1279;24270;-61
2023/04/16 08:42:35;;;;;;;10.90;2.60;;;;;;;12.07;83.31;100356.94;110085;1276;22324;-61
2023/04/16 08:45:13;;;;;;;10.90;3.00;;;;;;;12.16;83.72;100360.41;110115;1276;22154;-61
2023/04/16 08:47:47;;;;;;;3.20;0.80;;;;;;;12.27;82.96;100365.30;110109;1271;22845;-61
2023/04/16 08:50:24;;;;;;;2.40;0.60;;;;;;;12.33;80.91;100373.44;110121;1264;22230;-61
2023/04/16 08:52:58;;;;;;;9.40;1.30;;;;;;;12.38;81.25;100372.80;110046;1271;22247;-61
2023/04/16 08:55:36;;;;;;;5.00;1.10;;;;;;;12.48;81.03;100375.16;110102;1274;22892;-61
2023/04/16 08:58:13;;;;;;;6.70;1.60;;;;;;;12.53;79.62;100379.27;110130;1268;22344;-61
2023/04/16 09:00:45;;;;;;;4.30;1.10;;;;;;;12.54;79.19;100376.27;110092;1272;22204;-61
2023/04/16 09:03:18;;;;;;;5.30;1.20;;;;;;;12.58;79.55;100378.86;110138;1276;22151;-61
2023/04/16 09:05:49;;;;;;;4.90;1.20;;;;;;;12.60;78.71;100382.14;110124;1271;22247;-61
2023/04/16 09:08:21;;;;;;;3.80;0.80;;;;;;;12.60;78.73;100381.24;110094;1274;22204;-61
2023/04/16 09:10:53;;;;;;;4.90;1.10;;;;;;;12.65;77.38;100383.39;110053;1271;22184;-61
2023/04/16 09:13:25;;;;;;;5.80;1.20;;;;;;;12.74;77.83;100385.02;110080;1273;22139;-61
2023/04/16 09:15:56;;;;;;;6.10;1.20;;;;;;;12.82;78.73;100384.98;110099;1277;22162;-61
2023/04/16 09:18:28;;;;;;;7.20;1.60;;;;;;;12.92;78.61;100386.63;110109;1276;22307;-62
2023/04/16 09:20:59;;;;;;;7.90;1.70;;;;;;;13.00;77.57;100388.60;110117;1276;22205;-61
2023/04/16 09:23:30;;;;;;;5.70;1.30;;;;;;;13.06;78.27;100388.86;110119;1271;22324;-63
2023/04/16 09:26:01;;;;;;;7.50;1.80;;;;;;;13.14;78.36;100391.69;110117;1264;22362;-61
2023/04/16 09:28:42;;;;;;;6.30;1.60;;;;;;;13.19;77.18;100385.64;110109;1279;22171;-61
2023/04/16 09:31:15;;;;;;;7.90;2.10;;;;;;;13.14;76.38;100388.08;110112;1274;22188;-61
2023/04/16 09:34:06;;;;;;;6.50;1.50;;;;;;;13.06;76.71;100385.33;110100;1277;22233;-61
2023/04/16 09:36:38;;;;;;;5.90;1.10;;;;;;;13.09;76.81;100388.38;110114;1276;22208;-61
2023/04/16 09:39:18;;;;;;;4.00;1.10;;;;;;;13.13;76.68;100393.79;110094;1276;22146;-62
2023/04/16 09:41:51;;;;;;;5.30;1.00;;;;;;;13.16;75.64;100395.07;110115;1273;22122;-61
2023/04/16 09:44:34;;;;;;;5.50;1.20;;;;;;;13.18;75.84;100397.48;110096;1273;22276;-61
2023/04/16 09:47:09;;;;;;;4.20;0.90;;;;;;;13.22;75.45;100401.10;110058;1271;23002;-62
2023/04/16 09:49:45;;;;;;;4.80;1.10;;;;;;;13.26;74.71;100403.55;110121;1279;22248;-62
2023/04/16 09:52:17;;;;;;;4.30;1.10;;;;;;;13.26;73.61;100407.63;110108;1277;22214;-61
2023/04/16 09:54:50;;;;;;;5.90;1.20;;;;;;;13.24;72.60;100411.12;110098;1264;22192;-62
2023/04/16 09:57:22;;;;;;;5.50;1.10;;;;;;;13.25;73.83;100411.64;110077;1274;22187;-61
2023/04/16 10:00:01;;;;;;;5.60;1.30;;;;;;;13.28;73.22;100416.11;110114;1276;22140;-61
2023/04/16 10:02:33;;;;;;;3.90;1.00;;;;;;;13.27;72.77;100415.45;110096;1273;22176;-61
2023/04/16 10:05:05;;;;;;;5.80;1.30;;;;;;;13.28;72.95;100414.58;110087;1272;22286;-61
2023/04/16 10:07:37;;;;;;;4.80;1.00;;;;;;;13.31;72.69;100414.82;110126;1279;22400;-62
2023/04/16 10:10:10;;;;;;;4.20;1.40;;;;;;;13.32;72.64;100409.84;110124;1275;22969;-61
2023/04/16 10:12:42;;;;;;;6.50;1.20;;;;;;;13.36;72.76;100412.41;110084;1268;22287;-61
2023/04/16 10:15:13;;;;;;;5.20;1.40;;;;;;;13.38;72.22;100414.99;110108;1274;22222;-61
2023/04/16 10:17:45;;;;;;;7.10;1.60;;;;;;;13.39;72.76;100408.59;110101;1272;23486;-61
2023/04/16 10:20:17;;;;;;;5.80;1.50;;;;;;;13.41;71.80;100409.86;110098;1271;23492;-61
2023/04/16 10:22:48;;;;;;;6.80;2.10;;;;;;;13.41;72.05;100404.56;110100;1279;22281;-61
2023/04/16 10:25:20;;;;;;;8.90;2.30;;;;;;;13.47;72.11;100401.93;110120;1279;22156;-61
2023/04/16 10:27:51;;;;;;;11.10;3.40;;;;;;;13.52;72.00;100404.63;110108;1276;22137;-63
2023/04/16 10:30:23;;;;;;;11.20;3.00;;;;;;;13.54;72.67;100402.92;110107;1276;22277;-62
2023/04/16 10:32:55;;;;;;;9.80;2.50;;;;;;;13.64;72.55;100405.91;110072;1273;22992;-61
2023/04/16 10:35:27;;;;;;;10.80;3.20;;;;;;;13.72;71.08;100410.38;110111;1265;22266;-61
2023/04/16 10:38:19;;;;;;;11.80;4.00;;;;;;;13.76;72.53;100409.19;110092;1271;22372;-61
2023/04/16 10:40:50;;;;;;;11.60;3.20;;;;;;;13.88;72.39;100408.02;110084;1271;22213;-61
2023/04/16 10:43:21;;;;;;;14.70;5.40;;;;;;;14.00;72.74;100409.65;110085;1273;22221;-61
2023/04/16 10:45:53;;;;;;;12.60;3.80;;;;;;;14.08;71.77;100410.52;110082;1276;22156;-62
2023/04/16 10:48:26;;;;;;;11.10;3.10;;;;;;;14.12;71.15;100416.31;110129;1276;22224;-61
2023/04/16 10:50:58;;;;;;;11.90;3.40;;;;;;;14.17;71.30;100412.77;110086;1277;22807;-61
2023/04/16 10:53:29;;;;;;;12.00;2.90;;;;;;;14.23;70.18;100416.70;110085;1277;22155;-61
2023/04/16 10:56:12;;;;;;;9.40;2.80;;;;;;;14.26;70.29;100412.55;110089;1264;23183;-61
2023/04/16 10:58:43;;;;;;;11.60;3.30;;;;;;;14.29;70.12;100411.30;110085;1279;22218;-61
2023/04/16 11:01:15;;;;;;;8.10;2.30;;;;;;;14.35;70.42;100412.92;110094;1276;23089;-62
2023/04/16 11:03:48;;;;;;;11.80;2.60;;;;;;;14.38;68.87;100411.77;110108;1273;22384;-61
2023/04/16 11:06:25;;;;;;;7.90;1.80;;;;;;;14.38;69.14;100412.04;110116;1276;22137;-61
2023/04/16 11:08:56;;;;;;;4.60;1.30;;;;;;;14.46;68.30;100414.08;110037;1276;22338;-62
2023/04/16 11:11:37;;;;;;;6.30;1.70;;;;;;;14.52;67.93;100413.60;110087;1269;22123;-61
2023/04/16 11:14:06;;;;;;;;;;;;;;;14.56;67.07;100411.27;110085;1272;22429;-61
2023/04/16 11:16:40;;;;;;;5.50;1.60;;;;;;;14.56;67.67;100412.20;110108;1278;22136;-61
2023/04/16 11:19:17;;;;;;;10.50;1.30;;;;;;;14.59;66.50;100412.41;110090;1276;22209;-62
2023/04/16 11:21:49;;;;;;;5.70;1.20;;;;;;;14.60;66.21;100411.80;110068;1273;22226;-61
2023/04/16 11:24:20;;;;;;;7.20;1.40;;;;;;;14.62;65.96;100410.59;110084;1276;22206;-61
2023/04/16 11:26:54;;;;;;;5.20;1.30;;;;;;;14.66;65.64;100409.95;106738;1279;25338;-60
2023/04/16 11:29:25;;;;;;;6.70;1.00;;;;;;;14.65;65.51;100404.83;110104;1267;22197;-61
2023/04/16 11:31:56;;;;;;;6.90;1.30;;;;;;;14.65;64.85;100407.08;110092;1271;22335;-61